Thorn Hill, Tennessee
Current Conditions -  °F | °C
As of 4:35 PM on Saturday 25 Oct 2014 (Local Time) from KMOR Reporting Station
Few Clouds Few Clouds  
Wind Chill: 70°   Ceiling: Unl
Heat Index: 70°   Visibility: 10mi
Dew Point: 48°   Wind: 8mph
Humidity: 46%   Direction: 240°WSW
Pressure: 30.03"   Gusts: NA
Location:  36.36°N, 83.42°W
Report Text: KMOR 252035Z AUTO 24007KT 10SM FEW044 21/09 A3003 RMK
Loading
Personal Weather Stations






























Interactive Weather Map
Tropical Storm Tracking
New forecast layout! Learn more

10-Day Weather Forecast

Advertisements
Track Severe Weather on mobile